Time;durP1;ratioP1;P1;durP2;ratioP2;P2;SDS_P1;SDS_P2;PMS_P1;PMS_P2;Temp;Humidity;BMP_temperature;BMP_pressure;BME280_temperature;BME280_humidity;BME280_pressure;Samples;Min_cycle;Max_cycle;Signal;HPM_P1;HPM_P2
2022/06/21 00:00:32;;;;;;;0.80;0.80;;;;;;;13.75;66.31;95599.31;4932081;29;20209;-80
2022/06/21 00:03:13;;;;;;;1.90;0.90;;;;;;;13.76;66.38;95595.72;4919293;29;20253;-79
2022/06/21 00:05:41;;;;;;;1.13;1.00;;;;;;;13.76;66.27;95595.72;4917583;29;20194;-79
2022/06/21 00:08:12;;;;;;;1.00;0.90;;;;;;;13.88;65.69;95598.81;4918715;29;20213;-79
2022/06/21 00:10:38;;;;;;;1.77;1.20;;;;;;;13.70;65.94;95596.41;4936000;29;20200;-80
2022/06/21 00:13:10;;;;;;;3.47;1.20;;;;;;;13.75;66.11;95595.88;4918176;29;20741;-78
2022/06/21 00:15:35;;;;;;;0.80;0.80;;;;;;;13.87;65.76;95592.78;4934642;29;20170;-79
2022/06/21 00:18:00;;;;;;;3.27;0.80;;;;;;;13.86;65.68;95591.13;4918558;29;20218;-79
2022/06/21 00:20:27;;;;;;;1.23;1.13;;;;;;;13.84;66.36;95587.06;4935711;29;20201;-79
2022/06/21 00:22:52;;;;;;;2.90;1.30;;;;;;;13.76;66.38;95594.91;4918937;29;20650;-78
2022/06/21 00:25:21;;;;;;;1.63;1.00;;;;;;;13.81;67.02;95587.41;4901856;29;20197;-79
2022/06/21 00:27:47;;;;;;;1.30;1.00;;;;;;;13.74;67.43;95586.44;4927274;29;20181;-77
2022/06/21 00:30:13;;;;;;;1.87;1.00;;;;;;;13.75;67.06;95583.66;4954159;29;20623;-78
2022/06/21 00:32:39;;;;;;;4.57;1.40;;;;;;;13.70;67.50;95590.38;4953095;29;20182;-78
2022/06/21 00:35:09;;;;;;;2.90;1.23;;;;;;;13.69;67.78;95588.72;4953437;29;20173;-78
2022/06/21 00:37:34;;;;;;;1.10;1.03;;;;;;;13.66;68.97;95589.88;4954065;29;20228;-78
2022/06/21 00:40:00;;;;;;;2.07;1.20;;;;;;;13.69;69.24;95591.31;4937237;29;20621;-79
2022/06/21 00:42:28;;;;;;;1.40;1.13;;;;;;;13.69;69.34;95588.72;4954693;28;20177;-79
2022/06/21 00:45:20;;;;;;;1.80;1.20;;;;;;;13.76;68.94;95587.88;4920645;28;20280;-78
2022/06/21 00:47:51;;;;;;;2.27;0.97;;;;;;;13.73;69.27;95580.41;4937430;29;20165;-79
2022/06/21 00:50:25;;;;;;;1.40;1.30;;;;;;;13.68;69.23;95571.44;4921108;29;20212;-80
2022/06/21 00:53:07;;;;;;;2.97;1.40;;;;;;;13.62;69.18;95572.94;4954185;28;20259;-79
2022/06/21 00:55:41;;;;;;;3.43;1.30;;;;;;;13.62;69.11;95572.94;4953510;29;20158;-79
2022/06/21 00:58:10;;;;;;;1.60;1.10;;;;;;;13.67;68.84;95567.19;4937167;29;20181;-79
2022/06/21 01:01:01;;;;;;;1.57;1.03;;;;;;;13.42;69.64;95575.03;4936908;29;20188;-79
2022/06/21 01:03:41;;;;;;;3.00;1.10;;;;;;;13.48;69.63;95573.59;4937151;28;20228;-79
2022/06/21 01:06:15;;;;;;;1.87;1.13;;;;;;;13.42;69.58;95569.81;4935008;29;20177;-78
2022/06/21 01:08:43;;;;;;;1.73;1.20;;;;;;;13.33;70.30;95573.41;4937014;29;20197;-79
2022/06/21 01:11:13;;;;;;;2.27;1.20;;;;;;;13.40;69.87;95573.59;4936597;29;20182;-78
2022/06/21 01:13:42;;;;;;;3.10;1.20;;;;;;;13.39;70.36;95567.56;4936593;29;20173;-80
2022/06/21 01:16:08;;;;;;;1.60;0.97;;;;;;;13.58;69.72;95563.78;4936898;29;20232;-78
2022/06/21 01:18:33;;;;;;;2.07;1.10;;;;;;;13.65;69.56;95559.53;4920766;29;20189;-78
2022/06/21 01:20:59;;;;;;;2.13;1.20;;;;;;;13.69;69.88;95558.22;4937477;29;20181;-79
2022/06/21 01:23:31;;;;;;;1.77;1.23;;;;;;;13.72;70.11;95546.66;4919763;29;20186;-79
2022/06/21 01:26:17;;;;;;;1.77;1.43;;;;;;;14.00;69.48;95542.63;4935109;29;20207;-78
2022/06/21 01:28:43;;;;;;;1.30;1.20;;;;;;;14.03;69.30;95533.66;4933460;29;20359;-78
2022/06/21 01:31:08;;;;;;;4.37;1.40;;;;;;;13.95;69.37;95526.66;4917824;29;20186;-77
2022/06/21 01:33:38;;;;;;;1.33;1.23;;;;;;;14.08;69.01;95518.31;4934892;29;20182;-78
2022/06/21 01:36:11;;;;;;;3.27;1.40;;;;;;;14.11;68.80;95513.53;4917484;29;20252;-77
2022/06/21 01:38:42;;;;;;;1.97;1.27;;;;;;;14.11;68.71;95510.94;4917318;29;20220;-79
2022/06/21 01:41:11;;;;;;;2.33;1.10;;;;;;;14.11;69.51;95507.50;4902104;29;20173;-79
2022/06/21 01:43:39;;;;;;;1.77;1.50;;;;;;;14.16;69.95;95505.22;4934454;29;20182;-79
2022/06/21 01:46:08;;;;;;;2.40;1.43;;;;;;;14.12;70.24;95501.28;4916908;29;20528;-78
2022/06/21 01:48:37;;;;;;;1.53;1.43;;;;;;;14.05;70.24;95487.31;4934891;29;20550;-78
2022/06/21 01:51:07;;;;;;;1.93;1.30;;;;;;;14.03;70.21;95484.03;4934935;29;20709;-79
2022/06/21 01:53:34;;;;;;;1.47;1.30;;;;;;;14.02;70.36;95491.06;4917629;29;20190;-78
2022/06/21 01:56:07;;;;;;;2.77;1.17;;;;;;;13.97;70.00;95493.38;4934559;29;20268;-79
2022/06/21 01:58:36;;;;;;;1.30;1.10;;;;;;;13.94;70.25;95488.47;4917724;29;20277;-79
2022/06/21 02:01:13;;;;;;;1.93;1.30;;;;;;;13.78;69.97;95489.38;4917581;29;20179;-80
2022/06/21 02:03:40;;;;;;;1.77;1.13;;;;;;;13.70;69.98;95486.78;4921420;29;20209;-79
2022/06/21 02:06:09;;;;;;;1.60;1.13;;;;;;;13.73;69.31;95491.66;4903994;29;20173;-78
2022/06/21 02:08:38;;;;;;;2.17;1.30;;;;;;;13.73;68.49;95481.22;4921508;29;20205;-78
2022/06/21 02:11:07;;;;;;;1.27;1.17;;;;;;;13.75;67.39;95489.69;4920768;29;20554;-79
2022/06/21 02:13:37;;;;;;;1.87;1.30;;;;;;;13.63;67.65;95495.47;4920995;29;20214;-79
2022/06/21 02:16:12;;;;;;;1.37;1.23;;;;;;;13.67;67.57;95491.53;4937725;29;20639;-78
2022/06/21 02:18:40;;;;;;;1.20;0.77;;;;;;;13.60;68.01;95492.22;4921077;29;20676;-79
2022/06/21 02:21:18;;;;;;;2.40;1.47;;;;;;;13.59;67.62;95480.13;4921302;29;20523;-78
2022/06/21 02:23:49;;;;;;;2.00;1.10;;;;;;;13.65;66.91;95491.69;4920207;29;20229;-78
2022/06/21 02:26:15;;;;;;;1.80;1.23;;;;;;;13.65;66.89;95483.88;4920604;29;20205;-79
2022/06/21 02:28:40;;;;;;;1.00;1.00;;;;;;;13.72;66.63;95478.78;4937801;29;20304;-79
2022/06/21 02:31:08;;;;;;;4.80;1.30;;;;;;;13.73;66.29;95476.00;4920564;29;20654;-79
2022/06/21 02:33:33;;;;;;;2.37;1.20;;;;;;;13.71;65.76;95472.75;4920720;29;20178;-78
2022/06/21 02:36:02;;;;;;;1.50;1.13;;;;;;;13.63;66.07;95472.78;4937567;29;20180;-79
2022/06/21 02:38:43;;;;;;;2.87;1.40;;;;;;;13.64;66.36;95471.81;4920302;29;20188;-79
2022/06/21 02:41:17;;;;;;;2.50;1.20;;;;;;;13.54;67.01;95468.56;4920710;29;20285;-78
2022/06/21 02:43:49;;;;;;;2.20;1.00;;;;;;;13.58;67.36;95477.69;4937418;29;20208;-78
2022/06/21 02:46:18;;;;;;;1.30;1.20;;;;;;;13.55;67.14;95472.81;4920493;29;20205;-79
2022/06/21 02:48:51;;;;;;;3.10;1.20;;;;;;;13.52;67.45;95486.19;4920351;29;20194;-78
2022/06/21 02:51:20;;;;;;;1.10;1.00;;;;;;;13.60;66.68;95473.09;4920095;29;20319;-78
2022/06/21 02:53:55;;;;;;;1.47;1.13;;;;;;;13.57;66.62;95478.66;4919710;29;20269;-78
2022/06/21 02:56:25;;;;;;;2.37;1.30;;;;;;;13.54;67.14;95473.78;4920245;29;20213;-79
2022/06/21 02:58:52;;;;;;;1.20;1.10;;;;;;;13.51;67.11;95458.47;4904455;29;20206;-78
2022/06/21 03:01:21;;;;;;;2.60;1.37;;;;;;;13.40;67.06;95451.00;4920090;29;20189;-77
2022/06/21 03:03:48;;;;;;;2.97;1.37;;;;;;;13.31;67.60;95456.22;4936463;29;20530;-79
2022/06/21 03:06:15;;;;;;;2.87;1.30;;;;;;;13.22;67.58;95462.44;4918652;29;20224;-79
2022/06/21 03:09:07;;;;;;;2.10;1.40;;;;;;;13.27;67.32;95469.78;4919961;29;20666;-81
2022/06/21 03:11:42;;;;;;;1.70;1.13;;;;;;;13.28;67.55;95472.22;4919679;29;20289;-80
2022/06/21 03:14:12;;;;;;;2.00;1.60;;;;;;;13.37;67.65;95480.03;4936487;29;20210;-80
2022/06/21 03:16:39;;;;;;;1.50;1.30;;;;;;;13.37;68.09;95467.00;4919753;29;20178;-80
2022/06/21 03:19:07;;;;;;;2.03;1.37;;;;;;;13.40;68.46;95464.03;4919897;29;20201;-80
2022/06/21 03:21:34;;;;;;;2.50;1.40;;;;;;;13.38;68.99;95459.00;4919746;29;20189;-79
2022/06/21 03:24:03;;;;;;;4.60;1.70;;;;;;;13.39;68.71;95449.38;4919184;29;20178;-80
2022/06/21 03:26:28;;;;;;;1.83;1.23;;;;;;;13.39;68.79;95444.16;4903789;29;20563;-81
2022/06/21 03:28:54;;;;;;;1.77;1.20;;;;;;;13.42;68.78;95451.63;4920037;29;20205;-80
2022/06/21 03:31:23;;;;;;;2.33;1.40;;;;;;;13.54;68.63;95458.16;4919568;29;20269;-80
2022/06/21 03:33:54;;;;;;;2.17;1.20;;;;;;;13.63;68.04;95458.94;4935080;29;20173;-80
2022/06/21 03:36:22;;;;;;;2.17;1.43;;;;;;;13.78;67.47;95452.84;4919625;29;20177;-80
2022/06/21 03:38:50;;;;;;;1.37;1.27;;;;;;;13.87;66.90;95451.00;4919306;29;21093;-80
2022/06/21 03:44:07;;;;;;;3.70;1.43;;;;;;;14.06;64.71;95436.72;4936174;29;20184;-81
2022/06/21 03:46:38;;;;;;;3.50;1.27;;;;;;;14.04;65.00;95421.19;4919083;29;20201;-80
2022/06/21 03:49:23;;;;;;;1.73;1.60;;;;;;;14.07;64.23;95430.50;4936262;29;20198;-79
2022/06/21 03:51:48;;;;;;;1.60;1.20;;;;;;;14.28;63.78;95432.50;4919076;29;20241;-80
2022/06/21 03:54:31;;;;;;;5.43;1.40;;;;;;;14.89;62.18;95430.78;4935457;29;20260;-80
2022/06/21 03:57:02;;;;;;;1.30;1.20;;;;;;;15.57;59.08;95433.19;4920827;29;20169;-76
2022/06/21 03:59:44;;;;;;;2.60;1.60;;;;;;;16.54;56.45;95426.88;4917528;29;20204;-80
2022/06/21 04:02:14;;;;;;;1.95;1.50;;;;;;;17.07;53.86;95424.75;4919226;29;20177;-80
2022/06/21 04:04:47;;;;;;;2.10;1.38;;;;;;;17.15;53.33;95420.16;4919974;29;20193;-80
2022/06/21 04:07:19;;;;;;;1.38;1.15;;;;;;;17.84;50.81;95429.84;4907275;29;20205;-76
2022/06/21 04:10:04;;;;;;;2.13;1.33;;;;;;;18.31;48.52;95436.13;4908046;29;20206;-79
2022/06/21 04:12:41;;;;;;;2.97;1.27;;;;;;;19.18;47.02;95446.56;4939618;28;20209;-77
2022/06/21 04:15:12;;;;;;;1.95;1.35;;;;;;;19.69;45.08;95437.19;4925629;28;20236;-75
2022/06/21 04:17:57;;;;;;;2.42;1.10;;;;;;;20.93;41.49;95442.09;4943650;28;20258;-75
2022/06/21 04:20:30;;;;;;;2.45;1.40;;;;;;;21.25;40.50;95434.94;4941924;29;20229;-75
2022/06/21 04:23:00;;;;;;;2.75;1.35;;;;;;;21.71;39.80;95429.22;4953196;29;20260;-77
2022/06/21 04:25:31;;;;;;;2.55;1.23;;;;;;;21.02;40.88;95432.06;4937205;29;20178;-78
2022/06/21 04:28:05;;;;;;;2.40;1.27;;;;;;;21.09;41.50;95419.63;4922156;29;20548;-78
2022/06/21 04:30:43;;;;;;;1.42;1.20;;;;;;;20.48;42.13;95421.06;4922055;29;20313;-77
2022/06/21 04:33:19;;;;;;;2.55;1.17;;;;;;;21.27;40.17;95434.75;4919111;29;20177;-78
2022/06/21 04:35:50;;;;;;;1.77;1.08;;;;;;;22.16;38.25;95439.53;4934100;29;20240;-78
2022/06/21 04:38:27;;;;;;;2.30;1.23;;;;;;;21.33;39.23;95441.81;4928376;29;20186;-78
2022/06/21 04:40:59;;;;;;;1.30;1.20;;;;;;;20.54;42.13;95438.69;4919053;29;20664;-78
2022/06/21 04:43:49;;;;;;;1.95;1.23;;;;;;;20.44;42.13;95430.44;4902576;29;20186;-78
2022/06/21 04:46:24;;;;;;;2.67;1.38;;;;;;;19.02;45.38;95431.19;4932919;29;20222;-78
2022/06/21 04:49:01;;;;;;;1.30;1.17;;;;;;;18.54;46.73;95425.22;4923877;29;20291;-77
2022/06/21 04:51:34;;;;;;;3.58;1.60;;;;;;;17.99;49.44;95424.47;4954178;29;20598;-78
2022/06/21 04:54:03;;;;;;;3.90;1.20;;;;;;;18.11;49.39;95425.53;4936596;29;20174;-77
2022/06/21 04:56:46;;;;;;;1.20;1.10;;;;;;;18.33;49.40;95423.56;4953521;29;20253;-79
2022/06/21 04:59:21;;;;;;;2.10;1.30;;;;;;;19.32;46.54;95428.13;4916533;29;20201;-78
2022/06/21 05:01:46;;;;;;;2.10;1.20;;;;;;;20.50;43.93;95426.97;4918512;29;20177;-79
2022/06/21 05:04:22;;;;;;;4.28;1.10;;;;;;;21.54;41.84;95428.19;4934997;29;20737;-78
2022/06/21 05:06:48;;;;;;;1.52;1.20;;;;;;;22.57;38.90;95432.69;4930835;28;20209;-78
2022/06/21 05:09:16;;;;;;;2.00;1.20;;;;;;;23.09;38.28;95425.03;4955152;28;20207;-78
2022/06/21 05:11:41;;;;;;;1.42;1.30;;;;;;;22.79;37.95;95419.75;4955138;28;20596;-78
2022/06/21 05:14:16;;;;;;;2.22;1.20;;;;;;;23.09;36.93;95425.84;4972717;28;20175;-78
2022/06/21 05:16:42;;;;;;;1.20;1.10;;;;;;;22.76;38.11;95422.84;4973094;28;20168;-78
2022/06/21 05:19:15;;;;;;;1.63;1.00;;;;;;;21.94;39.77;95417.22;4936394;29;20300;-78
2022/06/21 05:21:48;;;;;;;1.98;1.42;;;;;;;21.60;40.86;95408.81;4922323;29;20209;-78
2022/06/21 05:24:13;;;;;;;2.10;1.50;;;;;;;20.65;42.97;95409.00;4940737;29;20194;-78
2022/06/21 05:27:07;;;;;;;2.20;1.50;;;;;;;20.73;42.90;95412.41;4948866;29;20247;-80
2022/06/21 05:29:43;;;;;;;3.05;1.45;;;;;;;22.28;39.50;95423.75;4923745;29;20576;-78
2022/06/21 05:32:15;;;;;;;2.30;1.20;;;;;;;21.47;39.47;95422.19;4947336;29;20268;-78
2022/06/21 05:34:44;;;;;;;2.67;1.40;;;;;;;20.08;43.93;95415.19;4936032;29;20189;-78
2022/06/21 05:37:34;;;;;;;1.95;1.33;;;;;;;19.92;44.74;95416.47;4942495;29;20178;-77
2022/06/21 05:40:03;;;;;;;2.25;1.30;;;;;;;20.20;43.50;95420.59;4953822;28;20644;-79
2022/06/21 05:42:29;;;;;;;2.20;1.55;;;;;;;19.27;45.40;95426.13;4961880;29;20621;-80
2022/06/21 05:45:07;;;;;;;2.03;1.63;;;;;;;18.73;47.45;95427.13;4942616;29;20189;-78
2022/06/21 05:47:39;;;;;;;3.03;1.80;;;;;;;18.17;49.49;95430.00;4926891;29;20217;-78
2022/06/21 05:50:07;;;;;;;1.83;1.33;;;;;;;17.82;51.42;95435.31;4927467;29;20666;-79
2022/06/21 05:52:34;;;;;;;3.22;1.50;;;;;;;17.62;53.01;95434.38;4933500;29;20193;-78
2022/06/21 05:55:06;;;;;;;3.33;1.58;;;;;;;17.60;53.60;95436.38;4944436;29;20200;-80
2022/06/21 05:57:39;;;;;;;2.63;1.35;;;;;;;17.55;54.53;95436.97;4947047;29;20182;-80
2022/06/21 06:00:05;;;;;;;2.38;1.65;;;;;;;17.54;55.28;95439.78;4934944;29;20216;-78
2022/06/21 06:02:36;;;;;;;3.47;1.58;;;;;;;17.44;56.38;95439.31;4942700;29;20189;-78
2022/06/21 06:05:15;;;;;;;2.10;1.60;;;;;;;18.05;54.66;95434.22;4927235;29;20212;-78
2022/06/21 06:07:55;;;;;;;2.72;1.70;;;;;;;19.14;51.86;95440.09;4912769;29;20583;-79
2022/06/21 06:10:22;;;;;;;4.75;1.48;;;;;;;19.33;51.35;95441.06;4925883;29;20207;-79
2022/06/21 06:12:50;;;;;;;1.65;1.48;;;;;;;20.57;47.71;95448.81;4927408;29;20190;-79
2022/06/21 06:15:32;;;;;;;1.67;1.40;;;;;;;21.29;45.58;95456.47;4929437;29;20189;-78
2022/06/21 06:18:04;;;;;;;3.10;1.65;;;;;;;21.96;44.27;95447.66;4947664;28;20203;-78
2022/06/21 06:20:32;;;;;;;2.47;1.80;;;;;;;23.70;40.89;95442.38;4947432;29;20276;-78
2022/06/21 06:23:35;;;;;;;5.43;1.65;;;;;;;24.08;39.97;95449.78;4949908;28;20551;-78
2022/06/21 06:26:06;;;;;;;2.22;1.60;;;;;;;23.45;40.76;95446.03;4950634;28;20205;-79
2022/06/21 06:28:44;;;;;;;1.50;1.40;;;;;;;24.48;39.70;95444.53;4925681;29;20188;-80
2022/06/21 06:31:20;;;;;;;2.40;1.30;;;;;;;25.66;36.22;95448.09;4944392;29;20220;-79
2022/06/21 06:33:55;;;;;;;2.78;1.63;;;;;;;26.69;34.52;95444.88;4952948;29;20650;-77
2022/06/21 06:36:30;;;;;;;3.55;1.70;;;;;;;26.21;35.55;95444.56;4930303;29;20713;-79
2022/06/21 06:38:56;;;;;;;1.65;1.40;;;;;;;27.59;32.55;95448.59;4921918;29;20224;-81
2022/06/21 06:41:28;;;;;;;3.35;1.40;;;;;;;27.68;32.40;95428.41;4934840;29;20208;-80
2022/06/21 06:44:02;;;;;;;2.00;1.45;;;;;;;27.84;32.30;95437.31;4943892;29;20196;-80
2022/06/21 06:46:36;;;;;;;3.08;1.85;;;;;;;27.43;33.10;95444.22;4943063;29;20212;-79
2022/06/21 06:49:07;;;;;;;3.45;1.80;;;;;;;27.42;33.31;95450.63;4951026;28;20205;-81
2022/06/21 06:51:43;;;;;;;3.55;1.90;;;;;;;26.40;34.83;95454.94;4950602;28;20190;-81
2022/06/21 06:54:15;;;;;;;2.15;1.95;;;;;;;25.75;36.98;95450.38;4944433;29;20208;-80
2022/06/21 06:56:56;;;;;;;2.30;2.08;;;;;;;26.48;36.33;95447.31;4937717;29;20248;-80
2022/06/21 06:59:23;;;;;;;2.33;1.88;;;;;;;24.55;39.58;95447.81;4941317;28;20193;-81
2022/06/21 07:01:57;;;;;;;2.35;1.90;;;;;;;23.85;41.80;95444.50;4948551;28;20196;-80
2022/06/21 07:04:23;;;;;;;3.80;2.33;;;;;;;22.82;44.87;95446.59;4920628;29;20185;-80
2022/06/21 07:06:51;;;;;;;4.30;2.70;;;;;;;21.69;48.08;95454.28;4938432;29;20705;-80
2022/06/21 07:09:35;;;;;;;3.78;3.40;;;;;;;21.20;50.37;95459.38;4936710;29;20217;-79
2022/06/21 07:12:13;;;;;;;3.50;3.17;;;;;;;20.97;51.16;95472.34;4944050;28;20188;-80
2022/06/21 07:14:38;;;;;;;5.60;2.97;;;;;;;20.69;53.09;95472.72;4927821;29;20221;-80
2022/06/21 07:17:19;;;;;;;3.20;2.67;;;;;;;20.21;54.02;95470.47;4927397;29;20190;-81
2022/06/21 07:19:45;;;;;;;2.75;2.55;;;;;;;20.90;52.01;95466.28;4944076;29;20297;-82
2022/06/21 07:22:16;;;;;;;4.15;2.30;;;;;;;21.48;49.59;95460.78;4926753;29;20212;-82
2022/06/21 07:24:50;;;;;;;4.40;2.92;;;;;;;21.24;51.74;95456.28;4925980;29;20185;-81
2022/06/21 07:27:16;;;;;;;6.00;3.35;;;;;;;21.77;51.17;95457.44;4939007;29;20198;-80
2022/06/21 07:29:48;;;;;;;5.93;2.60;;;;;;;22.66;48.87;95441.94;4936706;29;20621;-82
2022/06/21 07:32:16;;;;;;;4.53;2.80;;;;;;;23.02;46.58;95433.06;4937260;29;20182;-82
2022/06/21 07:34:57;;;;;;;5.15;3.05;;;;;;;23.16;46.64;95418.59;4952284;28;20213;-81
2022/06/21 07:37:31;;;;;;;3.40;2.95;;;;;;;22.90;47.99;95400.47;4920490;29;20177;-82
2022/06/21 07:40:03;;;;;;;5.93;4.00;;;;;;;22.19;49.18;95403.91;4927400;29;20298;-82
2022/06/21 07:42:43;;;;;;;5.97;3.40;;;;;;;21.86;50.69;95389.22;4943606;29;20188;-81
2022/06/21 07:45:26;;;;;;;5.43;3.70;;;;;;;21.44;52.61;95380.34;4933412;29;20185;-82
2022/06/21 07:47:59;;;;;;;5.55;3.97;;;;;;;20.74;54.08;95377.06;4937479;29;20212;-80
2022/06/21 07:50:27;;;;;;;5.30;4.03;;;;;;;21.74;51.74;95375.97;4949683;28;20686;-81
2022/06/21 07:52:59;;;;;;;5.20;3.40;;;;;;;23.14;48.49;95385.41;4905497;29;20245;-82
2022/06/21 07:55:35;;;;;;;4.57;3.53;;;;;;;23.22;47.47;95371.81;4936528;29;20178;-82
2022/06/21 07:58:07;;;;;;;5.38;3.78;;;;;;;23.80;45.67;95378.94;4948896;28;20279;-81
2022/06/21 08:09:08;;;;;;;5.15;3.70;;;;;;;22.60;47.70;95424.31;4923778;29;20695;-81
2022/06/21 08:11:37;;;;;;;4.63;3.40;;;;;;;22.27;48.65;95401.78;4937135;29;20181;-81
2022/06/21 08:14:02;;;;;;;3.97;3.55;;;;;;;22.34;48.91;95417.53;4950178;28;21079;-80
2022/06/21 08:16:35;;;;;;;3.40;3.10;;;;;;;21.82;49.40;95413.66;4929500;29;20201;-81
2022/06/21 08:19:29;;;;;;;4.25;3.05;;;;;;;21.37;51.55;95427.94;4937189;29;20248;-82
2022/06/21 08:22:05;;;;;;;3.85;3.33;;;;;;;21.77;50.31;95428.38;4914084;29;20698;-80
2022/06/21 08:24:52;;;;;;;4.05;3.08;;;;;;;21.87;50.55;95411.97;4939315;29;20272;-81
2022/06/21 08:27:23;;;;;;;3.40;3.10;;;;;;;22.05;49.50;95427.03;4935271;29;20206;-79
2022/06/21 08:30:06;;;;;;;4.50;2.90;;;;;;;21.90;50.92;95443.25;4943966;28;20229;-81
2022/06/21 08:32:34;;;;;;;5.65;3.25;;;;;;;22.10;48.80;95429.84;4952482;29;20605;-80
2022/06/21 08:35:14;;;;;;;4.72;3.05;;;;;;;21.97;49.97;95432.63;4935671;29;20550;-80
2022/06/21 08:37:47;;;;;;;6.57;3.50;;;;;;;22.18;49.66;95420.81;4946902;29;20269;-78
2022/06/21 08:40:33;;;;;;;5.15;3.22;;;;;;;22.03;48.53;95410.59;4910644;29;20261;-78
2022/06/21 08:43:16;;;;;;;3.03;2.78;;;;;;;22.55;49.22;95400.38;4917672;29;20249;-78
2022/06/21 08:46:03;;;;;;;5.15;2.78;;;;;;;23.27;46.82;95395.00;4941036;29;20515;-78
2022/06/21 08:48:59;;;;;;;4.72;3.33;;;;;;;22.83;48.12;95382.00;4951869;28;20213;-77
2022/06/21 08:52:02;;;;;;;4.63;3.17;;;;;;;23.15;47.23;95374.59;4949996;28;20205;-78
2022/06/21 08:54:38;;;;;;;5.45;3.50;;;;;;;22.69;47.78;95395.66;4923416;29;20170;-77
2022/06/21 08:57:15;;;;;;;3.70;3.33;;;;;;;22.61;47.61;95392.31;4937894;29;20243;-78
2022/06/21 09:00:13;;;;;;;5.03;2.95;;;;;;;22.25;49.40;95401.16;4927817;29;20276;-79
2022/06/21 09:02:42;;;;;;;6.60;3.00;;;;;;;21.94;49.84;95388.13;4863240;29;20209;-78
2022/06/21 09:05:26;;;;;;;4.57;2.40;;;;;;;22.16;49.33;95394.56;4948590;28;20542;-77
2022/06/21 09:08:22;;;;;;;5.63;3.33;;;;;;;22.34;48.89;95401.66;4944650;29;20237;-78
2022/06/21 09:10:56;;;;;;;4.22;2.78;;;;;;;22.39;49.69;95408.94;4937000;29;20193;-78
2022/06/21 09:13:46;;;;;;;7.85;3.55;;;;;;;22.59;47.02;95410.25;4936544;29;20182;-77
2022/06/21 09:16:35;;;;;;;3.88;2.60;;;;;;;23.25;46.07;95411.13;4935264;29;20557;-78
2022/06/21 09:19:13;;;;;;;4.25;2.90;;;;;;;23.36;46.28;95397.06;4939090;29;20233;-81
2022/06/21 09:21:45;;;;;;;5.72;2.95;;;;;;;23.49;45.79;95403.94;4932022;29;20201;-80
2022/06/21 09:24:25;;;;;;;4.47;2.85;;;;;;;23.68;44.17;95397.53;4934954;29;20193;-81
2022/06/21 09:27:24;;;;;;;5.18;2.97;;;;;;;23.64;45.08;95409.63;4935064;29;20206;-80
2022/06/21 09:30:02;;;;;;;6.30;2.80;;;;;;;23.82;43.66;95398.06;4944136;28;20403;-79
2022/06/21 09:33:08;;;;;;;4.00;2.90;;;;;;;23.71;44.65;95391.75;4934561;29;20189;-79
2022/06/21 09:35:52;;;;;;;5.55;3.40;;;;;;;23.17;46.33;95392.91;4934602;29;20180;-80
2022/06/21 09:38:46;;;;;;;4.22;3.20;;;;;;;23.93;45.67;95386.63;4940873;29;20188;-80
2022/06/21 09:41:23;;;;;;;7.03;3.72;;;;;;;23.77;43.66;95376.78;4920907;29;20192;-81
2022/06/21 09:43:51;;;;;;;4.47;2.97;;;;;;;23.97;44.81;95374.53;4943634;29;20193;-79
2022/06/21 09:46:46;;;;;;;5.38;3.78;;;;;;;24.01;44.63;95386.25;4939296;29;20427;-80
2022/06/21 09:49:33;;;;;;;3.13;2.83;;;;;;;23.85;45.07;95379.03;4917530;29;20273;-81
2022/06/21 09:52:03;;;;;;;4.95;3.47;;;;;;;23.53;45.54;95373.31;4943028;29;20244;-80
2022/06/21 09:54:31;;;;;;;4.88;3.92;;;;;;;23.13;46.84;95378.50;4950992;29;20273;-79
2022/06/21 09:57:05;;;;;;;7.55;3.50;;;;;;;23.59;46.39;95375.06;4950236;29;20213;-80
2022/06/21 09:59:45;;;;;;;3.95;3.55;;;;;;;23.73;45.61;95362.34;4950917;28;20219;-79
2022/06/21 10:02:23;;;;;;;3.90;3.50;;;;;;;23.62;45.61;95361.34;4951368;29;20196;-80
2022/06/21 10:05:05;;;;;;;5.13;3.30;;;;;;;23.56;45.00;95367.53;4943370;28;20221;-80
2022/06/21 10:07:59;;;;;;;4.45;3.45;;;;;;;23.80;45.98;95364.88;4934991;29;20277;-79
2022/06/21 10:11:01;;;;;;;3.55;3.20;;;;;;;23.87;44.70;95369.03;4946170;28;20247;-80
2022/06/21 10:13:55;;;;;;;7.63;3.63;;;;;;;23.93;45.81;95373.34;4940670;29;20173;-78
2022/06/21 10:16:23;;;;;;;6.57;3.78;;;;;;;24.54;44.83;95363.91;4927271;29;20181;-79
2022/06/21 10:19:03;;;;;;;4.10;3.40;;;;;;;24.26;44.03;95350.66;4947784;29;20220;-79
2022/06/21 10:22:08;;;;;;;4.00;3.30;;;;;;;24.54;44.39;95353.31;4936147;29;20204;-78
2022/06/21 10:24:58;;;;;;;3.90;3.15;;;;;;;24.60;43.70;95348.09;4937347;29;20221;-79
2022/06/21 10:27:55;;;;;;;4.38;3.42;;;;;;;24.72;44.64;95344.31;4925162;29;20718;-77
2022/06/21 10:30:39;;;;;;;6.80;3.50;;;;;;;24.36;44.05;95347.41;4849595;29;20275;-78
2022/06/21 10:33:27;;;;;;;4.22;3.60;;;;;;;24.15;47.04;95346.22;4853179;29;20215;-78
2022/06/21 10:36:04;;;;;;;7.22;3.20;;;;;;;24.95;44.18;95345.22;4831908;29;20203;-79
2022/06/21 10:39:00;;;;;;;5.82;3.50;;;;;;;25.11;42.24;95350.53;4855808;29;20732;-78
2022/06/21 10:42:46;;;;;;;8.02;3.50;;;;;;;24.95;42.70;95348.66;4843458;29;20193;-78
2022/06/21 10:44:38;;;;;;;5.25;3.25;;;;;;;24.83;43.62;95345.28;4851601;29;20276;-78
2022/06/21 10:47:10;;;;;;;3.40;2.95;;;;;;;24.89;42.51;95348.81;4863268;29;20204;-77
2022/06/21 10:50:06;;;;;;;4.70;3.70;;;;;;;24.85;43.02;95349.31;4856704;29;20213;-76
2022/06/21 10:53:01;;;;;;;8.60;4.00;;;;;;;25.31;41.85;95346.56;4874711;29;20196;-78
2022/06/21 10:55:42;;;;;;;3.72;3.30;;;;;;;25.25;42.41;95350.19;4872187;29;20181;-78
2022/06/21 10:58:36;;;;;;;5.40;3.30;;;;;;;25.34;42.07;95341.56;4836311;29;20194;-79
2022/06/21 11:01:17;;;;;;;4.47;3.40;;;;;;;25.59;40.80;95348.25;4878352;29;20184;-78
2022/06/21 11:03:51;;;;;;;4.38;3.22;;;;;;;25.64;40.99;95341.16;4871564;29;20232;-77
2022/06/21 11:06:29;;;;;;;3.72;3.35;;;;;;;25.54;41.64;95340.25;4919376;29;20616;-78
2022/06/21 11:09:14;;;;;;;3.92;3.53;;;;;;;25.37;43.01;95334.97;4935060;29;20284;-78
2022/06/21 11:12:52;;;;;;;5.45;3.10;;;;;;;25.59;42.49;95333.13;4946504;28;20190;-78
2022/06/21 11:15:06;;;;;;;4.75;3.30;;;;;;;26.17;40.79;95328.25;4951697;28;20189;-79
2022/06/21 11:18:10;;;;;;;4.03;3.03;;;;;;;25.53;41.03;95327.97;4948218;28;20264;-80
2022/06/21 11:20:41;;;;;;;5.38;3.40;;;;;;;25.37;41.61;95324.34;4928859;29;20218;-78
2022/06/21 11:23:28;;;;;;;7.35;3.33;;;;;;;25.43;41.79;95318.00;4934390;29;20181;-79
2022/06/21 11:26:36;;;;;;;7.15;3.50;;;;;;;25.27;41.37;95314.38;4928683;29;20193;-78
2022/06/21 11:29:13;;;;;;;5.90;3.08;;;;;;;25.52;41.26;95308.56;4922225;29;20689;-78
2022/06/21 11:32:03;;;;;;;5.55;3.33;;;;;;;25.66;41.47;95295.72;4948039;28;20194;-82
2022/06/21 11:35:16;;;;;;;6.03;3.70;;;;;;;26.01;40.19;95297.19;4941709;29;20660;-79
2022/06/21 11:38:06;;;;;;;4.25;3.63;;;;;;;26.27;39.83;95288.41;4880416;29;20730;-79
2022/06/21 11:40:48;;;;;;;8.32;3.50;;;;;;;26.33;40.99;95289.25;4895474;29;20266;-79
2022/06/21 11:43:24;;;;;;;9.00;3.70;;;;;;;26.69;39.72;95288.53;4873396;29;20199;-80
2022/06/21 11:45:51;;;;;;;6.25;3.67;;;;;;;26.39;39.24;95281.09;4875629;29;20193;-78
2022/06/21 11:48:28;;;;;;;6.20;3.10;;;;;;;26.38;39.69;95279.50;4871804;29;20208;-80
2022/06/21 11:51:11;;;;;;;5.85;3.42;;;;;;;26.52;39.65;95279.88;4876300;29;20203;-81
2022/06/21 11:53:56;;;;;;;5.68;3.40;;;;;;;26.29;40.29;95285.50;4894595;29;20195;-80
2022/06/21 11:56:48;;;;;;;4.07;3.00;;;;;;;26.44;39.94;95297.13;4878131;29;20243;-80
2022/06/21 11:59:14;;;;;;;5.45;3.42;;;;;;;26.48;40.83;95308.06;4898348;29;20259;-80
2022/06/21 12:01:52;;;;;;;5.47;3.38;;;;;;;27.00;39.14;95305.53;4890169;29;20207;-78
2022/06/21 12:04:24;;;;;;;4.50;3.33;;;;;;;27.29;37.88;95305.22;4892486;29;20202;-80
2022/06/21 12:07:10;;;;;;;5.05;3.33;;;;;;;26.87;39.35;95294.53;4883306;29;20286;-79
2022/06/21 12:09:41;;;;;;;5.53;3.25;;;;;;;26.71;39.70;95286.44;4904716;29;20226;-79
2022/06/21 12:12:33;;;;;;;3.65;2.75;;;;;;;27.17;39.00;95276.09;4949801;29;20188;-78
2022/06/21 12:15:17;;;;;;;6.45;3.13;;;;;;;27.91;38.76;95267.09;4935144;29;20204;-79
2022/06/21 12:17:54;;;;;;;5.07;3.08;;;;;;;27.44;38.39;95251.97;4941369;29;20599;-79
2022/06/21 12:20:24;;;;;;;6.18;3.42;;;;;;;26.95;39.52;95251.44;4948328;28;20208;-79
2022/06/21 12:22:55;;;;;;;4.13;3.45;;;;;;;26.89;38.91;95253.25;4941925;28;20182;-79
2022/06/21 12:25:21;;;;;;;4.32;3.40;;;;;;;26.62;38.47;95268.50;4936869;29;20182;-79